メインページ
METAR-TAF:

METAR-TAF

空港 :

ケロウナ国際空港

ケロウナ, ブリティッシュコロンビア州, カナダ

緯度: 49-58N, 経度: 119-23W, 海抜: 430m

現時点の気象観測

当レポートは26分前の11:00(UTC)に作成
の風 6kt
気温 17°C
湿度 63%
気圧 1014 hPa
視程: 14.5km
晴天

METAR: CYLW 171100Z AUTO 18006KT 9SM CLR 17/10 A2994 RMK SLP133 DENSITY ALT 1900FT

時間: 04:26 (11:26 UTC)

予報

当レポートは4時間48分前の06:38(UTC)に作成
予報は17日の 07時(UTC)から 17日の 19時(UTC)まで有効
南/南東の風 8kt
視程: 10km
高度12000ftの雲は散在している
高度15000ftの雲は散在している
17日の 07時(UTC)から 17日の 14時(UTC)まで一時的に
高度12000ftの千切れ雲あり
17日の 07時(UTC)から 17日の 09時(UTC)まで徐々に
変向風 3kt
17日の 1400時(UTC)から
の風 6kt
視程: 10km
高度5000ftの雲は散在している

TAF: CYLW 170638Z 1707/1719 16008KT P6SM SCT120 SCT150 TEMPO 1707/1714 BKN120 BECMG 1707/1709 VRB03KT FM171400 19006KT P6SM SCT050 RMK FCST BASED ON AUTO OBS. NXT FCST BY 171300Z

4,000以上の空港の気象観測と天気予報(METAR報とTAF報)

利用可能な観測所は地図上に黄色い丸と赤い丸で示す。

丸の上にカーソルを重ねると観測所名を参照できる。

次にクリックすると気象観測と天気予報を参照できる。

マップの切り替え:黒色「×」印の緑ボタンをクリックして拡大、「-」印の緑ボタンをクリックして縮小、緑色の三角印をクリックして隣りの地図に切り替え


METAR-TAF: